createdAt,value
2022-10-05T00:01:58.268Z,13.77
2022-10-05T00:04:11.667Z,11.77
2022-10-05T00:06:15.032Z,10.60
2022-10-05T00:08:20.627Z,12.10
2022-10-05T00:10:24.370Z,14.27
2022-10-05T00:12:29.593Z,14.40
2022-10-05T00:14:36.651Z,14.97
2022-10-05T00:16:39.657Z,20.17
2022-10-05T00:18:50.331Z,17.40
2022-10-05T00:20:53.015Z,16.03
2022-10-05T00:22:59.235Z,17.07
2022-10-05T00:25:04.052Z,22.63
2022-10-05T00:27:15.522Z,19.27
2022-10-05T00:29:23.676Z,19.77
2022-10-05T00:31:32.461Z,20.40
2022-10-05T00:33:35.507Z,20.33
2022-10-05T00:35:38.381Z,18.67
2022-10-05T00:37:41.678Z,17.97
2022-10-05T00:39:44.983Z,19.80
2022-10-05T00:42:05.145Z,18.97
2022-10-05T00:44:37.237Z,19.27
2022-10-05T00:46:54.691Z,19.47
2022-10-05T00:49:07.288Z,21.10
2022-10-05T00:51:24.043Z,19.80
2022-10-05T00:53:42.360Z,18.73
2022-10-05T00:55:55.582Z,16.90
2022-10-05T00:58:09.143Z,16.77
2022-10-05T01:00:14.448Z,16.43
2022-10-05T01:02:35.839Z,16.13
2022-10-05T01:04:47.496Z,15.70
2022-10-05T01:07:05.094Z,14.80
2022-10-05T01:09:13.807Z,17.97
2022-10-05T01:11:26.192Z,16.07
2022-10-05T01:13:36.667Z,14.13
2022-10-05T01:15:48.148Z,18.43
2022-10-05T01:17:58.024Z,13.90
2022-10-05T01:20:14.519Z,16.47
2022-10-05T01:22:28.288Z,17.00
2022-10-05T01:24:45.236Z,14.87
2022-10-05T01:27:34.623Z,14.83
2022-10-05T01:29:44.528Z,14.30
2022-10-05T01:31:55.961Z,12.40
2022-10-05T01:34:10.547Z,13.43
2022-10-05T01:36:22.242Z,11.20
2022-10-05T01:38:36.951Z,12.73
2022-10-05T01:40:50.036Z,15.17
2022-10-05T01:43:04.503Z,15.30
2022-10-05T01:45:12.956Z,13.47
2022-10-05T01:47:21.695Z,12.23
2022-10-05T01:49:37.439Z,10.17
2022-10-05T01:51:49.187Z,14.40
2022-10-05T01:54:02.218Z,10.47
2022-10-05T01:56:14.425Z,12.60
2022-10-05T01:58:29.231Z,11.07
2022-10-05T02:00:35.620Z,11.13
2022-10-05T02:02:43.350Z,11.17
2022-10-05T02:05:01.962Z,13.63
2022-10-05T02:07:14.287Z,12.33
2022-10-05T02:09:21.292Z,9.37
2022-10-05T02:11:24.072Z,14.50
2022-10-05T02:13:34.886Z,13.17
2022-10-05T02:15:44.019Z,14.53
2022-10-05T02:17:51.027Z,19.80
2022-10-05T02:19:58.012Z,20.70
2022-10-05T02:22:06.120Z,20.10
2022-10-05T02:24:16.491Z,20.63
2022-10-05T02:26:20.566Z,22.77
2022-10-05T02:28:27.955Z,19.37
2022-10-05T02:30:36.352Z,19.87
2022-10-05T02:32:42.979Z,25.20
2022-10-05T02:34:46.353Z,25.20
2022-10-05T02:36:52.915Z,21.70
2022-10-05T02:39:06.248Z,23.73
2022-10-05T02:41:19.889Z,23.43
2022-10-05T02:43:30.384Z,24.00
2022-10-05T02:45:42.715Z,23.40
2022-10-05T02:47:52.684Z,22.37
2022-10-05T02:50:01.954Z,20.77
2022-10-05T02:52:11.558Z,23.47
2022-10-05T02:54:24.880Z,21.83
2022-10-05T02:56:33.027Z,17.57
2022-10-05T02:58:43.669Z,18.60
2022-10-05T03:00:53.890Z,17.67
2022-10-05T03:03:02.824Z,18.47
2022-10-05T03:05:13.924Z,17.77
2022-10-05T03:07:22.289Z,20.10
2022-10-05T03:09:32.249Z,20.60
2022-10-05T03:11:44.680Z,23.27
2022-10-05T03:13:51.715Z,19.20
2022-10-05T03:16:07.629Z,17.47
2022-10-05T03:18:19.895Z,20.50
2022-10-05T03:20:35.007Z,19.00
2022-10-05T03:22:48.343Z,20.30
2022-10-05T03:25:05.763Z,19.83
2022-10-05T03:27:20.974Z,20.83
2022-10-05T03:29:30.260Z,21.00
2022-10-05T03:31:44.563Z,21.23
2022-10-05T03:33:52.915Z,20.53
2022-10-05T03:36:04.854Z,25.13
2022-10-05T03:38:16.865Z,25.80
2022-10-05T03:40:30.363Z,27.40
2022-10-05T03:42:39.791Z,22.40
2022-10-05T03:44:49.825Z,23.47
2022-10-05T03:47:06.211Z,22.37
2022-10-05T03:49:14.831Z,25.80
2022-10-05T03:51:25.144Z,27.87
2022-10-05T03:53:33.123Z,25.23
2022-10-05T03:55:42.077Z,24.87
2022-10-05T03:57:46.723Z,29.97
2022-10-05T03:59:58.439Z,28.97
2022-10-05T04:02:06.853Z,29.60
2022-10-05T04:04:17.549Z,29.23
2022-10-05T04:06:25.563Z,31.07
2022-10-05T04:08:36.347Z,29.27
2022-10-05T04:10:45.107Z,36.30
2022-10-05T04:12:54.282Z,30.33
2022-10-05T04:15:01.745Z,31.43
2022-10-05T04:17:09.641Z,24.83
2022-10-05T04:19:18.635Z,38.00
2022-10-05T04:21:24.535Z,27.87
2022-10-05T04:23:39.770Z,38.43
2022-10-05T04:25:46.133Z,37.03
2022-10-05T04:27:53.510Z,32.77
2022-10-05T04:30:03.823Z,37.23
2022-10-05T04:32:25.004Z,36.43
2022-10-05T04:34:53.377Z,47.83
2022-10-05T04:37:01.400Z,42.97
2022-10-05T04:39:17.024Z,43.17
2022-10-05T04:41:43.213Z,37.80
2022-10-05T04:43:56.844Z,39.07
2022-10-05T04:46:14.814Z,42.47
2022-10-05T04:48:31.555Z,54.33
2022-10-05T04:50:50.665Z,46.67
2022-10-05T04:53:05.240Z,44.13
2022-10-05T04:55:19.224Z,60.80
2022-10-05T04:57:27.156Z,50.00
2022-10-05T04:59:56.537Z,54.80
2022-10-05T05:02:07.887Z,56.90
2022-10-05T05:04:33.419Z,48.27
2022-10-05T05:06:40.011Z,46.57
2022-10-05T05:09:05.304Z,49.47
2022-10-05T05:11:17.412Z,48.60
2022-10-05T05:13:52.815Z,51.40
2022-10-05T05:16:02.013Z,47.17
2022-10-05T05:18:35.976Z,52.83
2022-10-05T05:20:52.816Z,49.40
2022-10-05T05:23:04.760Z,47.67
2022-10-05T05:25:34.069Z,48.00
2022-10-05T05:27:44.082Z,45.50
2022-10-05T05:29:54.540Z,43.13
2022-10-05T05:32:07.394Z,43.73
2022-10-05T05:34:21.882Z,42.40
2022-10-05T05:36:45.071Z,47.23
2022-10-05T05:38:56.203Z,44.77
2022-10-05T05:41:09.584Z,48.03
2022-10-05T05:43:24.030Z,43.33
2022-10-05T05:45:36.078Z,51.73
2022-10-05T05:47:42.874Z,47.10
2022-10-05T05:49:57.397Z,44.53
2022-10-05T05:52:07.462Z,50.93
2022-10-05T05:54:24.440Z,51.10
2022-10-05T05:56:33.583Z,51.83
2022-10-05T05:58:43.446Z,51.97
2022-10-05T06:00:52.115Z,53.43
2022-10-05T06:03:03.148Z,48.83
2022-10-05T06:05:25.740Z,52.33
2022-10-05T06:07:31.882Z,50.00
2022-10-05T06:09:39.346Z,51.70
2022-10-05T06:11:46.487Z,53.37
2022-10-05T06:13:50.063Z,52.77
2022-10-05T06:15:56.531Z,56.60
2022-10-05T06:18:04.338Z,50.77
2022-10-05T06:20:17.145Z,52.20
2022-10-05T06:22:24.661Z,47.87
2022-10-05T06:24:35.731Z,46.37
2022-10-05T06:27:08.778Z,47.63
2022-10-05T06:29:17.753Z,45.83
2022-10-05T06:31:36.045Z,45.00
2022-10-05T06:33:50.544Z,46.70
2022-10-05T06:36:07.776Z,46.63
2022-10-05T06:38:21.687Z,44.67
2022-10-05T06:40:42.239Z,42.97
2022-10-05T06:43:04.380Z,37.83
2022-10-05T06:45:15.442Z,41.90
2022-10-05T06:47:24.556Z,43.43
2022-10-05T06:49:32.244Z,42.30
2022-10-05T06:51:42.430Z,40.37
2022-10-05T06:53:56.602Z,45.23
2022-10-05T06:56:08.337Z,40.93
2022-10-05T06:58:31.584Z,42.77
2022-10-05T07:00:42.023Z,45.87
2022-10-05T07:02:53.276Z,49.17
2022-10-05T07:05:14.528Z,51.87
2022-10-05T07:07:25.999Z,45.13
2022-10-05T07:09:40.334Z,47.03
2022-10-05T07:12:08.150Z,44.93
2022-10-05T07:14:23.739Z,51.77
2022-10-05T07:16:37.730Z,42.80
2022-10-05T07:19:06.070Z,48.13
2022-10-05T07:21:18.570Z,41.73
2022-10-05T07:23:34.372Z,45.17
2022-10-05T07:25:41.862Z,46.13
2022-10-05T07:27:54.979Z,43.97
2022-10-05T07:30:02.531Z,45.03
2022-10-05T07:32:16.592Z,42.87
2022-10-05T07:34:32.031Z,47.50
2022-10-05T07:36:59.271Z,46.57
2022-10-05T07:39:07.420Z,46.87
2022-10-05T07:41:16.329Z,42.57
2022-10-05T07:43:45.383Z,39.90
2022-10-05T07:45:59.358Z,49.23
2022-10-05T07:48:09.115Z,43.50
2022-10-05T07:50:19.954Z,43.63
2022-10-05T07:52:29.065Z,39.73
2022-10-05T07:54:44.973Z,43.90
2022-10-05T07:56:52.791Z,41.27
2022-10-05T07:59:02.951Z,34.53
2022-10-05T08:01:11.397Z,41.43
2022-10-05T08:03:20.357Z,44.37
2022-10-05T08:05:27.361Z,38.57
2022-10-05T08:07:32.688Z,43.53
2022-10-05T08:09:41.734Z,42.47
2022-10-05T08:11:53.714Z,41.60
2022-10-05T08:14:06.083Z,38.53
2022-10-05T08:16:13.525Z,40.53
2022-10-05T08:18:22.699Z,42.17
2022-10-05T08:20:33.015Z,40.53
2022-10-05T08:22:43.777Z,35.63
2022-10-05T08:24:52.411Z,33.10
2022-10-05T08:27:02.009Z,34.10
2022-10-05T08:29:18.250Z,31.10
2022-10-05T08:31:25.455Z,30.03
2022-10-05T08:33:33.182Z,29.80
2022-10-05T08:35:39.453Z,30.47
2022-10-05T08:37:44.824Z,27.20
2022-10-05T08:39:54.026Z,28.77
2022-10-05T08:42:31.063Z,24.50
2022-10-05T08:45:11.589Z,24.97
2022-10-05T08:47:27.971Z,24.50
2022-10-05T08:49:55.689Z,23.87
2022-10-05T08:52:19.811Z,24.00
2022-10-05T08:54:35.935Z,24.83
2022-10-05T08:56:44.380Z,24.97
2022-10-05T08:59:09.157Z,23.30
2022-10-05T09:01:26.353Z,23.70
2022-10-05T09:04:00.818Z,26.63
2022-10-05T09:06:23.447Z,26.80
2022-10-05T09:09:05.127Z,27.87
2022-10-05T09:11:13.455Z,27.07
2022-10-05T09:13:34.384Z,24.70
2022-10-05T09:16:03.124Z,27.37
2022-10-05T09:18:44.089Z,24.23
2022-10-05T09:20:53.220Z,23.93
2022-10-05T09:23:00.576Z,24.30
2022-10-05T09:25:18.833Z,25.35
2022-10-05T09:27:37.636Z,21.90
2022-10-05T09:30:03.960Z,25.58
2022-10-05T09:32:34.728Z,23.38
2022-10-05T09:34:53.971Z,21.52
2022-10-05T09:37:25.462Z,22.17
2022-10-05T09:40:01.216Z,21.63
2022-10-05T09:42:37.835Z,24.77
2022-10-05T09:45:21.380Z,24.43
2022-10-05T09:47:55.095Z,20.13
2022-10-05T09:50:45.958Z,19.48
2022-10-05T09:53:15.615Z,21.75
2022-10-05T09:55:41.750Z,20.80
2022-10-05T09:58:15.051Z,18.07
2022-10-05T10:00:29.528Z,21.75
2022-10-05T10:03:05.257Z,19.83
2022-10-05T10:05:34.079Z,18.50
2022-10-05T10:08:04.596Z,19.35
2022-10-05T10:10:29.135Z,18.85
2022-10-05T10:12:46.191Z,20.52
2022-10-05T10:15:29.204Z,21.17
2022-10-05T10:17:57.691Z,21.33
2022-10-05T10:20:24.043Z,19.80
2022-10-05T10:22:50.862Z,20.92
2022-10-05T10:25:28.473Z,20.20
2022-10-05T10:27:57.025Z,17.58
2022-10-05T10:30:32.030Z,17.92
2022-10-05T10:33:11.168Z,16.45
2022-10-05T10:35:36.632Z,17.45
2022-10-05T10:38:09.817Z,16.77
2022-10-05T10:40:30.273Z,16.75
2022-10-05T10:42:42.744Z,16.35
2022-10-05T10:45:16.907Z,14.85
2022-10-05T10:47:44.718Z,14.35
2022-10-05T10:50:22.845Z,12.57
2022-10-05T10:52:39.474Z,13.52
2022-10-05T10:55:25.283Z,13.50
2022-10-05T10:57:49.952Z,12.27
2022-10-05T11:00:19.523Z,12.82
2022-10-05T11:02:48.484Z,14.32
2022-10-05T11:05:12.782Z,12.50
2022-10-05T11:07:37.879Z,16.35
2022-10-05T11:09:57.391Z,11.93
2022-10-05T11:12:45.366Z,12.00
2022-10-05T11:15:17.309Z,12.20
2022-10-05T11:17:31.599Z,11.55
2022-10-05T11:20:03.535Z,12.50
2022-10-05T11:22:17.882Z,13.27
2022-10-05T11:24:45.142Z,13.23
2022-10-05T11:27:07.902Z,13.57
2022-10-05T11:29:43.076Z,11.73
2022-10-05T11:32:21.767Z,13.32
2022-10-05T11:34:45.275Z,13.73
2022-10-05T11:37:20.865Z,13.25
2022-10-05T11:39:36.837Z,13.10
2022-10-05T11:42:21.243Z,13.20
2022-10-05T11:45:08.471Z,12.27
2022-10-05T11:47:17.920Z,12.90
2022-10-05T11:49:30.746Z,12.95
2022-10-05T11:51:59.803Z,12.77
2022-10-05T11:54:22.081Z,11.80
2022-10-05T11:58:44.559Z,12.43
2022-10-05T12:00:55.426Z,11.73
2022-10-05T12:03:27.558Z,13.73
2022-10-05T12:05:35.741Z,11.98
2022-10-05T12:07:46.486Z,11.70
2022-10-05T12:10:22.581Z,13.30
2022-10-05T12:12:32.257Z,11.52
2022-10-05T12:14:45.459Z,11.77
2022-10-05T12:16:54.781Z,10.70
2022-10-05T12:19:02.110Z,12.45
2022-10-05T12:21:08.600Z,10.70
2022-10-05T12:23:18.657Z,11.57
2022-10-05T12:25:28.124Z,10.98
2022-10-05T12:27:37.024Z,10.70
2022-10-05T12:29:45.028Z,10.45
2022-10-05T12:31:57.332Z,11.35
2022-10-05T12:34:11.161Z,8.52
2022-10-05T12:36:19.309Z,8.30
2022-10-05T12:38:28.377Z,10.02
2022-10-05T12:40:40.875Z,9.27
2022-10-05T12:42:50.377Z,9.85
2022-10-05T12:45:07.775Z,7.97
2022-10-05T12:47:20.946Z,12.77
2022-10-05T12:49:35.504Z,7.50
2022-10-05T12:51:43.785Z,9.13
2022-10-05T12:53:55.674Z,7.47
2022-10-05T12:56:06.932Z,8.65
2022-10-05T12:58:26.297Z,11.43
2022-10-05T13:00:32.257Z,7.28
2022-10-05T13:02:42.394Z,7.15
2022-10-05T13:04:50.921Z,6.93
2022-10-05T13:07:23.493Z,6.70
2022-10-05T13:09:32.574Z,6.70
2022-10-05T13:11:42.746Z,7.30
2022-10-05T13:13:53.632Z,6.60
2022-10-05T13:16:04.313Z,6.90
2022-10-05T13:18:19.639Z,10.45
2022-10-05T13:20:30.398Z,6.10
2022-10-05T13:22:37.300Z,6.50
2022-10-05T13:24:48.378Z,5.53
2022-10-05T13:26:54.544Z,6.97
2022-10-05T13:29:04.555Z,4.80
2022-10-05T13:31:13.526Z,5.72
2022-10-05T13:33:28.573Z,7.45
2022-10-05T13:35:45.034Z,4.70
2022-10-05T13:37:57.004Z,4.15
2022-10-05T13:40:15.802Z,3.97
2022-10-05T13:42:22.706Z,5.72
2022-10-05T13:44:33.858Z,4.85
2022-10-05T13:46:42.856Z,4.88
2022-10-05T13:49:00.316Z,4.20
2022-10-05T13:51:09.670Z,2.60
2022-10-05T13:53:19.566Z,4.50
2022-10-05T13:55:37.915Z,3.20
2022-10-05T13:57:51.884Z,4.40
2022-10-05T13:59:59.679Z,3.33
2022-10-05T14:02:06.963Z,7.70
2022-10-05T14:04:21.070Z,2.85
2022-10-05T14:06:30.622Z,3.83
2022-10-05T14:08:36.227Z,3.47
2022-10-05T14:10:41.765Z,3.30
2022-10-05T14:12:46.292Z,3.88
2022-10-05T14:14:51.370Z,4.28
2022-10-05T14:16:57.462Z,3.65
2022-10-05T14:19:20.118Z,3.63
2022-10-05T14:21:24.709Z,4.10
2022-10-05T14:23:28.724Z,5.18
2022-10-05T14:25:32.507Z,5.05
2022-10-05T14:27:49.505Z,3.10
2022-10-05T14:30:00.609Z,3.00
2022-10-05T14:32:13.740Z,3.53
2022-10-05T14:34:31.644Z,3.60
2022-10-05T14:36:40.078Z,2.95
2022-10-05T14:38:54.129Z,4.05
2022-10-05T14:41:18.212Z,4.03
2022-10-05T14:43:21.558Z,3.92
2022-10-05T14:45:26.527Z,4.25
2022-10-05T14:47:32.978Z,5.65
2022-10-05T14:49:50.357Z,3.95
2022-10-05T14:51:54.475Z,2.78
2022-10-05T14:53:59.616Z,4.25
2022-10-05T14:56:17.372Z,4.18
2022-10-05T14:58:36.089Z,3.53
2022-10-05T15:00:49.942Z,2.95
2022-10-05T15:03:06.187Z,2.47
2022-10-05T15:05:18.004Z,3.30
2022-10-05T15:07:25.892Z,2.70
2022-10-05T15:09:46.885Z,4.30
2022-10-05T15:11:52.522Z,3.97
2022-10-05T15:13:57.356Z,3.08
2022-10-05T15:16:06.489Z,2.70
2022-10-05T15:18:20.528Z,10.00
2022-10-05T15:20:28.670Z,2.90
2022-10-05T15:22:41.160Z,4.65
2022-10-05T15:24:52.656Z,3.15
2022-10-05T15:26:58.619Z,3.83
2022-10-05T15:29:08.625Z,18.80
2022-10-05T15:31:22.870Z,2.72
2022-10-05T15:33:30.015Z,6.47
2022-10-05T15:35:43.931Z,4.95
2022-10-05T15:37:54.708Z,4.15
2022-10-05T15:40:00.636Z,2.75
2022-10-05T15:42:08.009Z,3.60
2022-10-05T15:44:20.856Z,3.03
2022-10-05T15:46:34.160Z,4.97
2022-10-05T15:48:47.836Z,4.28
2022-10-05T15:50:57.114Z,3.30
2022-10-05T15:53:11.891Z,3.03
2022-10-05T15:55:26.057Z,4.05
2022-10-05T15:57:38.093Z,3.00
2022-10-05T15:59:54.509Z,3.75
2022-10-05T16:02:01.715Z,6.80
2022-10-05T16:04:13.531Z,5.20
2022-10-05T16:06:51.273Z,3.58
2022-10-05T16:09:11.134Z,4.20
2022-10-05T16:11:22.407Z,4.65
2022-10-05T16:13:33.988Z,4.65
2022-10-05T16:15:42.711Z,2.90
2022-10-05T16:18:02.711Z,3.35
2022-10-05T16:20:21.934Z,4.25
2022-10-05T16:22:34.449Z,6.05
2022-10-05T16:25:03.823Z,3.60
2022-10-05T16:27:16.065Z,3.42
2022-10-05T16:29:30.006Z,4.93
2022-10-05T16:31:38.358Z,4.72
2022-10-05T16:33:54.515Z,4.57
2022-10-05T16:36:05.769Z,4.03
2022-10-05T16:38:22.096Z,4.25
2022-10-05T16:40:33.173Z,4.75
2022-10-05T16:42:52.421Z,5.82
2022-10-05T16:45:06.738Z,5.15
2022-10-05T16:47:33.477Z,3.97
2022-10-05T16:49:43.779Z,3.88
2022-10-05T16:51:53.741Z,4.95
2022-10-05T16:54:09.278Z,4.13
2022-10-05T16:56:16.864Z,3.83
2022-10-05T16:58:25.599Z,4.47
2022-10-05T17:00:34.400Z,3.97
2022-10-05T17:02:55.453Z,6.03
2022-10-05T17:05:08.381Z,5.07
2022-10-05T17:07:49.283Z,4.93
2022-10-05T17:10:06.160Z,4.97
2022-10-05T17:12:39.339Z,5.90
2022-10-05T17:14:56.938Z,5.40
2022-10-05T17:17:39.117Z,4.70
2022-10-05T17:19:49.869Z,4.43
2022-10-05T17:22:00.561Z,6.80
2022-10-05T17:24:18.257Z,4.57
2022-10-05T17:26:47.045Z,8.65
2022-10-05T17:29:09.212Z,4.80
2022-10-05T17:31:18.846Z,4.25
2022-10-05T17:33:27.267Z,4.32
2022-10-05T17:35:52.720Z,5.35
2022-10-05T17:38:14.037Z,6.28
2022-10-05T17:40:38.685Z,4.28
2022-10-05T17:43:01.289Z,5.72
2022-10-05T17:45:38.263Z,4.40
2022-10-05T17:47:56.559Z,4.40
2022-10-05T17:50:17.661Z,4.97
2022-10-05T17:52:43.425Z,4.20
2022-10-05T17:55:29.943Z,5.45
2022-10-05T17:57:33.794Z,4.45
2022-10-05T17:59:45.371Z,4.15
2022-10-05T18:02:15.452Z,4.95
2022-10-05T18:04:42.204Z,4.72
2022-10-05T18:06:51.726Z,6.82
2022-10-05T18:09:17.361Z,5.53
2022-10-05T18:11:38.777Z,4.65
2022-10-05T18:13:47.667Z,5.90
2022-10-05T18:15:51.868Z,5.13
2022-10-05T18:17:57.944Z,4.32
2022-10-05T18:20:27.191Z,4.30
2022-10-05T18:22:30.204Z,3.90
2022-10-05T18:24:52.838Z,5.18
2022-10-05T18:27:08.189Z,4.72
2022-10-05T18:29:39.566Z,3.72
2022-10-05T18:31:54.112Z,4.10
2022-10-05T18:34:18.184Z,4.07
2022-10-05T18:36:37.884Z,4.55
2022-10-05T18:38:56.854Z,4.15
2022-10-05T18:41:06.300Z,4.72
2022-10-05T18:43:26.655Z,5.72
2022-10-05T18:45:36.440Z,2.75
2022-10-05T18:47:49.500Z,4.90
2022-10-05T18:50:16.462Z,2.92
2022-10-05T18:52:27.895Z,4.20
2022-10-05T18:54:49.128Z,5.00
2022-10-05T18:56:53.414Z,3.47
2022-10-05T18:59:14.216Z,4.70
2022-10-05T19:01:35.542Z,3.60
2022-10-05T19:03:49.799Z,4.38
2022-10-05T19:05:59.895Z,3.47
2022-10-05T19:08:10.448Z,5.60
2022-10-05T19:10:25.228Z,2.90
2022-10-05T19:12:41.844Z,4.90
2022-10-05T19:14:50.357Z,4.60
2022-10-05T19:17:08.004Z,3.00
2022-10-05T19:19:30.693Z,2.85
2022-10-05T19:21:44.448Z,3.70
2022-10-05T19:24:04.457Z,3.35
2022-10-05T19:26:15.966Z,3.10
2022-10-05T19:28:27.845Z,3.75
2022-10-05T19:30:45.133Z,3.35
2022-10-05T19:33:03.781Z,3.85
2022-10-05T19:35:19.455Z,3.50
2022-10-05T19:37:31.946Z,3.83
2022-10-05T19:39:43.039Z,5.63
2022-10-05T19:41:58.327Z,3.70
2022-10-05T19:44:18.023Z,3.83
2022-10-05T19:46:32.681Z,5.40
2022-10-05T19:48:44.262Z,3.53
2022-10-05T19:50:58.040Z,3.40
2022-10-05T19:53:13.085Z,3.40
2022-10-05T19:55:18.675Z,4.00
2022-10-05T19:57:21.525Z,4.18
2022-10-05T19:59:28.000Z,4.57
2022-10-05T20:01:35.292Z,4.05
2022-10-05T20:03:38.393Z,5.18
2022-10-05T20:05:41.957Z,3.28
2022-10-05T20:07:46.112Z,4.85
2022-10-05T20:09:56.622Z,3.67
2022-10-05T20:12:00.711Z,6.20
2022-10-05T20:14:20.742Z,3.92
2022-10-05T20:16:47.231Z,4.63
2022-10-05T20:19:08.004Z,6.00
2022-10-05T20:21:42.792Z,7.90
2022-10-05T20:23:46.855Z,4.32
2022-10-05T20:26:09.694Z,6.18
2022-10-05T20:28:12.396Z,4.80
2022-10-05T20:30:17.724Z,4.05
2022-10-05T20:32:20.465Z,5.05
2022-10-05T20:34:24.113Z,5.38
2022-10-05T20:36:27.282Z,6.97
2022-10-05T20:38:30.677Z,4.05
2022-10-05T20:40:35.579Z,5.53
2022-10-05T20:42:38.566Z,5.70
2022-10-05T20:44:41.330Z,5.65
2022-10-05T20:46:46.112Z,5.18
2022-10-05T20:48:48.857Z,5.65
2022-10-05T20:50:51.616Z,4.10
2022-10-05T20:52:54.327Z,5.45
2022-10-05T20:54:58.089Z,6.38
2022-10-05T20:57:02.252Z,4.97
2022-10-05T20:59:06.697Z,4.75
2022-10-05T21:01:19.541Z,5.47
2022-10-05T21:03:23.242Z,5.95
2022-10-05T21:05:26.236Z,5.97
2022-10-05T21:07:29.084Z,5.85
2022-10-05T21:09:32.720Z,6.20
2022-10-05T21:11:35.421Z,4.47
2022-10-05T21:13:44.485Z,4.43
2022-10-05T21:15:47.169Z,5.65
2022-10-05T21:17:50.612Z,5.00
2022-10-05T21:19:53.536Z,5.68
2022-10-05T21:21:59.003Z,6.13
2022-10-05T21:24:02.126Z,4.85
2022-10-05T21:26:04.897Z,5.22
2022-10-05T21:28:07.704Z,6.25
2022-10-05T21:30:12.960Z,5.95
2022-10-05T21:32:15.684Z,4.88
2022-10-05T21:34:18.392Z,5.13
2022-10-05T21:36:24.570Z,7.07
2022-10-05T21:38:27.986Z,6.05
2022-10-05T21:40:30.897Z,6.20
2022-10-05T21:42:34.093Z,4.38
2022-10-05T21:44:37.326Z,4.25
2022-10-05T21:46:42.375Z,7.63
2022-10-05T21:48:45.610Z,4.20
2022-10-05T21:50:48.938Z,5.47
2022-10-05T21:52:51.767Z,6.30
2022-10-05T21:54:54.759Z,5.43
2022-10-05T21:57:00.033Z,4.07
2022-10-05T21:59:03.853Z,4.65
2022-10-05T22:01:08.050Z,5.30
2022-10-05T22:03:12.368Z,6.47
2022-10-05T22:05:15.280Z,5.03
2022-10-05T22:07:20.503Z,4.20
2022-10-05T22:09:23.557Z,4.18
2022-10-05T22:11:26.748Z,7.30
2022-10-05T22:13:41.839Z,3.65
2022-10-05T22:15:44.960Z,5.07
2022-10-05T22:17:47.651Z,3.67
2022-10-05T22:19:52.451Z,5.13
2022-10-05T22:21:55.256Z,4.28
2022-10-05T22:23:58.298Z,4.43
2022-10-05T22:26:01.528Z,5.75
2022-10-05T22:28:05.302Z,3.78
2022-10-05T22:30:09.414Z,4.80
2022-10-05T22:32:12.178Z,4.30
2022-10-05T22:34:14.937Z,5.13
2022-10-05T22:36:20.664Z,7.80
2022-10-05T22:38:26.244Z,4.18
2022-10-05T22:40:29.906Z,4.70
2022-10-05T22:42:33.550Z,5.95
2022-10-05T22:44:36.400Z,4.38
2022-10-05T22:46:39.523Z,5.57
2022-10-05T22:48:43.064Z,4.63
2022-10-05T22:50:46.080Z,10.60
2022-10-05T22:52:52.100Z,4.05
2022-10-05T22:54:55.047Z,5.20
2022-10-05T22:56:57.788Z,3.75
2022-10-05T22:59:00.524Z,5.03
2022-10-05T23:01:05.549Z,4.88
2022-10-05T23:03:08.423Z,3.97
2022-10-05T23:05:13.533Z,3.97
2022-10-05T23:07:16.444Z,5.03
2022-10-05T23:09:20.789Z,5.60
2022-10-05T23:11:26.062Z,5.50
2022-10-05T23:13:29.061Z,4.15
2022-10-05T23:15:33.332Z,3.60
2022-10-05T23:17:39.092Z,5.22
2022-10-05T23:19:42.963Z,4.45
2022-10-05T23:21:45.793Z,5.60
2022-10-05T23:23:51.751Z,6.82
2022-10-05T23:25:59.960Z,5.00
2022-10-05T23:28:03.758Z,6.85
2022-10-05T23:30:08.344Z,3.95
2022-10-05T23:32:11.065Z,5.68
2022-10-05T23:34:13.934Z,5.35
2022-10-05T23:36:18.513Z,4.40
2022-10-05T23:38:22.364Z,4.10
2022-10-05T23:40:25.351Z,5.65
2022-10-05T23:42:29.490Z,5.57
2022-10-05T23:44:32.390Z,5.50
2022-10-05T23:46:35.119Z,7.30
2022-10-05T23:48:38.827Z,5.43
2022-10-05T23:50:42.405Z,6.55
2022-10-05T23:52:45.098Z,5.30
2022-10-05T23:54:48.165Z,5.45
2022-10-05T23:56:50.863Z,6.70
2022-10-05T23:58:55.409Z,6.28
